Time;durP1;ratioP1;P1;durP2;ratioP2;P2;SDS_P1;SDS_P2;PMS_P1;PMS_P2;Temp;Humidity;BMP_temperature;BMP_pressure;BME280_temperature;BME280_humidity;BME280_pressure;Samples;Min_cycle;Max_cycle;Signal;HPM_P1;HPM_P2
2022/06/27 00:01:56;;;;;;;;;;;17.50;99.90;;;;;;5030065;28;19932;-65
2022/06/27 00:04:23;;;;;;;;;;;17.50;99.90;;;;;;5032213;28;19995;-65
2022/06/27 00:06:50;;;;;;;;;;;17.40;99.90;;;;;;5029173;28;20378;-65
2022/06/27 00:09:16;;;;;;;;;;;17.40;99.90;;;;;;5025190;28;19932;-65
2022/06/27 00:11:45;;;;;;;;;;;17.40;99.90;;;;;;5025515;28;19985;-65
2022/06/27 00:14:12;;;;;;;;;;;17.40;99.90;;;;;;5037763;28;19924;-65
2022/06/27 00:16:38;;;;;;;;;;;17.50;99.90;;;;;;5030374;28;19926;-65
2022/06/27 00:19:05;;;;;;;;;;;17.60;99.90;;;;;;5028150;28;20346;-65
2022/06/27 00:21:32;;;;;;;;;;;17.60;99.90;;;;;;5025678;28;19925;-65
2022/06/27 00:23:59;;;;;;;;;;;17.60;99.90;;;;;;5028710;28;20281;-65
2022/06/27 00:26:25;;;;;;;;;;;17.60;99.90;;;;;;5030045;28;19925;-66
2022/06/27 00:28:54;;;;;;;;;;;17.60;99.90;;;;;;5023270;28;19925;-65
2022/06/27 00:31:21;;;;;;;;;;;17.60;99.90;;;;;;5041590;28;19936;-65
2022/06/27 00:33:47;;;;;;;;;;;17.50;99.90;;;;;;5032564;28;19924;-65
2022/06/27 00:36:14;;;;;;;;;;;17.60;99.90;;;;;;5025161;28;19925;-65
2022/06/27 00:38:41;;;;;;;;;;;17.60;99.90;;;;;;5031943;28;19987;-65
2022/06/27 00:41:08;;;;;;;;;;;17.50;99.90;;;;;;5028504;28;20419;-65
2022/06/27 00:43:35;;;;;;;;;;;17.50;99.90;;;;;;5030879;28;19925;-65
2022/06/27 00:46:03;;;;;;;;;;;17.50;99.90;;;;;;5026958;28;19929;-65
2022/06/27 00:48:30;;;;;;;;;;;17.50;99.90;;;;;;5016856;28;19929;-65
2022/06/27 00:50:58;;;;;;;;;;;17.50;99.90;;;;;;5032797;28;19925;-65
2022/06/27 00:53:25;;;;;;;;;;;17.50;99.90;;;;;;5031497;28;19926;-65
2022/06/27 00:55:55;;;;;;;;;;;17.50;99.90;;;;;;5025962;28;19956;-65
2022/06/27 00:58:22;;;;;;;;;;;17.50;99.90;;;;;;5020382;28;19926;-65
2022/06/27 01:00:49;;;;;;;;;;;17.40;99.90;;;;;;5029099;28;19932;-65
2022/06/27 01:03:17;;;;;;;;;;;17.40;99.90;;;;;;5031657;28;19925;-65
2022/06/27 01:05:51;;;;;;;;;;;17.50;99.90;;;;;;5026674;28;19932;-65
2022/06/27 01:08:18;;;;;;;;;;;17.40;99.90;;;;;;5027637;28;20015;-65
2022/06/27 01:10:45;;;;;;;;;;;17.40;99.90;;;;;;5039761;28;20311;-65
2022/06/27 01:13:12;;;;;;;;;;;17.40;99.90;;;;;;5035572;28;19931;-65
2022/06/27 01:15:39;;;;;;;;;;;17.40;99.90;;;;;;5027114;28;20355;-65
2022/06/27 01:18:07;;;;;;;;;;;17.40;99.90;;;;;;5021562;28;19925;-65
2022/06/27 01:20:35;;;;;;;;;;;17.40;99.90;;;;;;5021305;28;19956;-65
2022/06/27 01:23:06;;;;;;;;;;;17.40;99.90;;;;;;5025598;28;19979;-65
2022/06/27 01:25:34;;;;;;;;;;;17.40;99.90;;;;;;5019950;28;19925;-66
2022/06/27 01:28:01;;;;;;;;;;;17.40;99.90;;;;;;5025200;28;19936;-66
2022/06/27 01:30:27;;;;;;;;;;;17.40;99.90;;;;;;5020163;28;19990;-66
2022/06/27 01:32:54;;;;;;;;;;;17.40;99.90;;;;;;5017649;28;20389;-66
2022/06/27 01:35:23;;;;;;;;;;;17.40;99.90;;;;;;5018826;28;19983;-65
2022/06/27 01:37:49;;;;;;;;;;;17.40;99.90;;;;;;5024248;28;19925;-65
2022/06/27 01:40:18;;;;;;;;;;;17.30;99.90;;;;;;5027065;28;19935;-65
2022/06/27 01:42:45;;;;;;;;;;;17.30;99.90;;;;;;5017739;28;19935;-65
2022/06/27 01:45:12;;;;;;;;;;;17.30;99.90;;;;;;5023103;28;20305;-65
2022/06/27 01:47:41;;;;;;;;;;;17.30;99.90;;;;;;5021474;28;19935;-66
2022/06/27 01:50:12;;;;;;;;;;;17.30;99.90;;;;;;5024251;28;19933;-66
2022/06/27 01:52:43;;;;;;;;;;;17.20;99.90;;;;;;5017902;28;19925;-65
2022/06/27 01:55:12;;;;;;;;;;;17.20;99.90;;;;;;5023469;28;20195;-65
2022/06/27 01:57:45;;;;;;;;;;;17.30;99.90;;;;;;5013427;28;20397;-65
2022/06/27 02:00:14;;;;;;;;;;;17.30;99.90;;;;;;5016214;28;19932;-65
2022/06/27 02:03:01;;;;;;;;;;;17.20;99.90;;;;;;5020649;28;19929;-65
2022/06/27 02:05:38;;;;;;;;;;;17.20;99.90;;;;;;5027547;28;19925;-65
2022/06/27 02:08:05;;;;;;;;;;;17.20;99.90;;;;;;5024693;28;19929;-65
2022/06/27 02:10:33;;;;;;;;;;;17.20;99.90;;;;;;5030836;28;20459;-66
2022/06/27 02:13:02;;;;;;;;;;;17.20;99.90;;;;;;5018861;28;19948;-65
2022/06/27 02:15:30;;;;;;;;;;;17.20;99.90;;;;;;5024406;28;20416;-65
2022/06/27 02:17:57;;;;;;;;;;;17.20;99.90;;;;;;5016590;28;19949;-65
2022/06/27 02:20:26;;;;;;;;;;;17.20;99.90;;;;;;5020814;28;19968;-66
2022/06/27 02:22:53;;;;;;;;;;;17.10;99.90;;;;;;5029730;28;19925;-65
2022/06/27 02:25:20;;;;;;;;;;;17.10;99.90;;;;;;5021581;28;19932;-65
2022/06/27 02:27:48;;;;;;;;;;;17.20;99.90;;;;;;5029721;28;19932;-65
2022/06/27 02:30:16;;;;;;;;;;;17.20;99.90;;;;;;5022356;28;19932;-65
2022/06/27 02:32:43;;;;;;;;;;;17.10;99.90;;;;;;5020138;28;19925;-65
2022/06/27 02:35:10;;;;;;;;;;;17.20;99.90;;;;;;5025899;28;19932;-65
2022/06/27 02:37:37;;;;;;;;;;;17.20;99.90;;;;;;5019183;28;20331;-66
2022/06/27 02:40:07;;;;;;;;;;;17.20;99.90;;;;;;5021350;28;20022;-65
2022/06/27 02:42:34;;;;;;;;;;;17.10;99.90;;;;;;5021704;28;20392;-66
2022/06/27 02:45:02;;;;;;;;;;;17.10;99.90;;;;;;5021679;28;19926;-65
2022/06/27 02:47:32;;;;;;;;;;;17.10;99.90;;;;;;5019462;28;19925;-65
2022/06/27 02:49:59;;;;;;;;;;;17.10;99.90;;;;;;5021872;28;19926;-65
2022/06/27 02:52:28;;;;;;;;;;;17.10;99.90;;;;;;5017372;28;20008;-65
2022/06/27 02:55:05;;;;;;;;;;;17.10;99.90;;;;;;5022999;28;19952;-65
2022/06/27 02:57:42;;;;;;;;;;;17.10;99.90;;;;;;5019314;28;19925;-65
2022/06/27 03:00:09;;;;;;;;;;;17.10;99.90;;;;;;5052472;28;19925;-65
2022/06/27 03:02:41;;;;;;;;;;;17.10;99.90;;;;;;5027494;28;19929;-65
2022/06/27 03:05:34;;;;;;;;;;;17.20;99.90;;;;;;5022053;28;19945;-66
2022/06/27 03:08:01;;;;;;;;;;;17.20;99.90;;;;;;5022061;28;19925;-66
2022/06/27 03:10:28;;;;;;;;;;;17.20;99.90;;;;;;5029780;28;19932;-65
2022/06/27 03:12:55;;;;;;;;;;;17.20;99.90;;;;;;5016233;28;19929;-65
2022/06/27 03:15:22;;;;;;;;;;;17.20;99.90;;;;;;5024060;28;19964;-66
2022/06/27 03:17:53;;;;;;;;;;;17.20;99.90;;;;;;5020215;28;19925;-65
2022/06/27 03:20:29;;;;;;;;;;;17.20;99.90;;;;;;5023831;28;19960;-65
2022/06/27 03:23:12;;;;;;;;;;;17.10;99.90;;;;;;5028719;28;20420;-65
2022/06/27 03:25:45;;;;;;;;;;;17.10;99.90;;;;;;5025707;28;19932;-65
2022/06/27 03:28:12;;;;;;;;;;;17.00;99.90;;;;;;5020848;28;19960;-66
2022/06/27 03:30:39;;;;;;;;;;;16.90;99.90;;;;;;5048850;28;19925;-65
2022/06/27 03:33:08;;;;;;;;;;;16.90;99.90;;;;;;5024909;28;19926;-65
2022/06/27 03:35:43;;;;;;;;;;;16.90;99.90;;;;;;5026869;28;19960;-66
2022/06/27 03:38:12;;;;;;;;;;;16.80;99.90;;;;;;5029998;28;19947;-65
2022/06/27 03:40:39;;;;;;;;;;;16.80;99.90;;;;;;5028320;28;19956;-66
2022/06/27 03:43:06;;;;;;;;;;;16.80;99.90;;;;;;5022130;28;19932;-65
2022/06/27 03:45:33;;;;;;;;;;;16.80;99.90;;;;;;5023996;28;20316;-66
2022/06/27 03:48:02;;;;;;;;;;;16.80;99.90;;;;;;5024959;28;19926;-64
2022/06/27 03:50:32;;;;;;;;;;;16.80;99.90;;;;;;5025440;28;19925;-64
2022/06/27 03:52:59;;;;;;;;;;;16.90;99.90;;;;;;5046687;28;20412;-64
2022/06/27 03:55:26;;;;;;;;;;;16.90;99.90;;;;;;5030167;28;19925;-64
2022/06/27 03:57:54;;;;;;;;;;;16.90;99.90;;;;;;5021987;28;19925;-65
2022/06/27 04:00:24;;;;;;;;;;;16.90;99.90;;;;;;5032860;28;19932;-64
2022/06/27 04:02:54;;;;;;;;;;;17.00;99.90;;;;;;5027629;28;19929;-64
2022/06/27 04:05:51;;;;;;;;;;;17.00;99.90;;;;;;5020852;28;19932;-64
2022/06/27 04:08:18;;;;;;;;;;;17.00;99.90;;;;;;5048434;28;19932;-64
2022/06/27 04:10:46;;;;;;;;;;;17.00;99.90;;;;;;5019612;28;20424;-64
2022/06/27 04:13:15;;;;;;;;;;;17.10;99.90;;;;;;5024933;28;19932;-65
2022/06/27 04:16:17;;;;;;;;;;;17.10;99.90;;;;;;5029085;28;19948;-64
2022/06/27 04:18:54;;;;;;;;;;;17.10;99.90;;;;;;5023632;28;19933;-64
2022/06/27 04:21:45;;;;;;;;;;;17.20;99.90;;;;;;5023016;28;19975;-64
2022/06/27 04:24:27;;;;;;;;;;;17.30;99.90;;;;;;5032792;28;20309;-65
2022/06/27 04:26:57;;;;;;;;;;;17.30;99.90;;;;;;5029371;28;19925;-64
2022/06/27 04:29:26;;;;;;;;;;;17.30;99.90;;;;;;5031104;28;20396;-64
2022/06/27 04:31:53;;;;;;;;;;;17.40;99.90;;;;;;5026604;28;19932;-64
2022/06/27 04:34:20;;;;;;;;;;;17.40;99.90;;;;;;5017028;28;20329;-65
2022/06/27 04:36:49;;;;;;;;;;;17.40;99.90;;;;;;5027171;28;20311;-64
2022/06/27 04:39:19;;;;;;;;;;;17.50;99.90;;;;;;5025964;28;19925;-64
2022/06/27 04:41:51;;;;;;;;;;;17.50;99.90;;;;;;5021359;28;19926;-65
2022/06/27 04:44:19;;;;;;;;;;;17.60;99.90;;;;;;5033761;28;20357;-65
2022/06/27 04:46:47;;;;;;;;;;;17.60;99.90;;;;;;5024640;28;19925;-65
2022/06/27 04:49:28;;;;;;;;;;;17.70;99.90;;;;;;5026459;28;20408;-65
2022/06/27 04:51:58;;;;;;;;;;;17.80;99.90;;;;;;5026958;28;19960;-64
2022/06/27 04:54:26;;;;;;;;;;;17.90;99.90;;;;;;5038767;28;19925;-64
2022/06/27 04:56:54;;;;;;;;;;;17.90;99.90;;;;;;5031840;28;19925;-64
2022/06/27 04:59:21;;;;;;;;;;;17.90;99.90;;;;;;5030100;28;20016;-64
2022/06/27 05:01:53;;;;;;;;;;;17.90;99.90;;;;;;5018643;28;19948;-64
2022/06/27 05:04:22;;;;;;;;;;;17.90;99.90;;;;;;5048165;28;20019;-64
2022/06/27 05:06:50;;;;;;;;;;;18.00;99.90;;;;;;5030363;28;19925;-64
2022/06/27 05:09:18;;;;;;;;;;;18.00;99.90;;;;;;5025343;28;19931;-64
2022/06/27 05:11:45;;;;;;;;;;;18.10;99.90;;;;;;5032115;28;19983;-65
2022/06/27 05:14:12;;;;;;;;;;;18.20;99.90;;;;;;5031545;28;20278;-64
2022/06/27 05:16:51;;;;;;;;;;;18.20;99.90;;;;;;5032414;28;19975;-65
2022/06/27 05:19:20;;;;;;;;;;;18.20;99.90;;;;;;5031857;28;20363;-65
2022/06/27 05:21:47;;;;;;;;;;;18.20;99.90;;;;;;5031949;28;19948;-64
2022/06/27 05:24:18;;;;;;;;;;;18.20;99.90;;;;;;5029802;28;20388;-64
2022/06/27 05:26:47;;;;;;;;;;;18.30;99.90;;;;;;5028550;28;19936;-64
2022/06/27 05:29:14;;;;;;;;;;;18.20;99.90;;;;;;5029907;28;19925;-65
2022/06/27 05:31:41;;;;;;;;;;;18.10;99.90;;;;;;5023324;28;19992;-65
2022/06/27 05:34:08;;;;;;;;;;;18.00;99.90;;;;;;5040383;28;19925;-65
2022/06/27 05:36:35;;;;;;;;;;;18.00;99.90;;;;;;5039909;28;19928;-65
2022/06/27 05:39:03;;;;;;;;;;;17.90;99.90;;;;;;5037943;28;19924;-65
2022/06/27 05:41:31;;;;;;;;;;;17.90;99.90;;;;;;5023370;28;19925;-65
2022/06/27 05:44:03;;;;;;;;;;;17.90;99.90;;;;;;5018613;28;19957;-65
2022/06/27 05:46:31;;;;;;;;;;;17.90;99.90;;;;;;5014888;28;19925;-65
2022/06/27 05:49:27;;;;;;;;;;;17.90;99.90;;;;;;5018402;28;19932;-65
2022/06/27 05:51:57;;;;;;;;;;;17.90;99.90;;;;;;5019527;28;19929;-66
2022/06/27 05:54:24;;;;;;;;;;;18.00;99.90;;;;;;5015134;28;19948;-65
2022/06/27 05:56:52;;;;;;;;;;;18.00;99.90;;;;;;5017042;28;20373;-66
2022/06/27 05:59:20;;;;;;;;;;;18.00;99.90;;;;;;5022472;28;20048;-65
2022/06/27 06:01:49;;;;;;;;;;;18.00;99.90;;;;;;5038609;28;19925;-64
2022/06/27 06:04:17;;;;;;;;;;;18.00;99.90;;;;;;5024921;28;20316;-66
2022/06/27 06:06:44;;;;;;;;;;;18.10;99.90;;;;;;5029962;28;19925;-66
2022/06/27 06:09:13;;;;;;;;;;;18.10;99.90;;;;;;5040009;28;19925;-65
2022/06/27 06:11:40;;;;;;;;;;;18.10;99.90;;;;;;5030093;28;19932;-65
2022/06/27 06:14:09;;;;;;;;;;;18.10;99.90;;;;;;5017537;28;19932;-65
2022/06/27 06:16:37;;;;;;;;;;;18.10;99.90;;;;;;5019796;28;19961;-65
2022/06/27 06:19:04;;;;;;;;;;;18.10;99.90;;;;;;5017064;28;19925;-66
2022/06/27 06:21:30;;;;;;;;;;;18.20;99.90;;;;;;5021586;28;19929;-66
2022/06/27 06:23:57;;;;;;;;;;;18.30;99.90;;;;;;5014183;28;19925;-65
2022/06/27 06:26:24;;;;;;;;;;;18.30;99.90;;;;;;5025478;28;19925;-70
2022/06/27 06:28:53;;;;;;;;;;;18.40;99.90;;;;;;5022392;28;19925;-65
2022/06/27 06:31:24;;;;;;;;;;;18.50;99.90;;;;;;5019833;28;20384;-65
2022/06/27 06:34:04;;;;;;;;;;;18.40;99.90;;;;;;5042106;28;19929;-65
2022/06/27 06:36:31;;;;;;;;;;;18.60;99.90;;;;;;5019966;28;19925;-65
2022/06/27 06:38:58;;;;;;;;;;;18.70;99.90;;;;;;5023268;28;19925;-64
2022/06/27 06:41:25;;;;;;;;;;;18.70;99.90;;;;;;5029329;28;19925;-66
2022/06/27 06:43:52;;;;;;;;;;;18.80;99.90;;;;;;5026716;28;20311;-65
2022/06/27 06:46:19;;;;;;;;;;;18.90;99.90;;;;;;5022505;28;19979;-65
2022/06/27 06:49:07;;;;;;;;;;;19.00;99.90;;;;;;5034661;28;19925;-65
2022/06/27 06:51:35;;;;;;;;;;;19.10;99.90;;;;;;5020972;28;19925;-65
2022/06/27 06:54:02;;;;;;;;;;;19.20;99.90;;;;;;5026466;28;19926;-66
2022/06/27 06:56:30;;;;;;;;;;;19.30;99.90;;;;;;5019958;28;19929;-65
2022/06/27 06:58:57;;;;;;;;;;;19.30;99.90;;;;;;5018418;28;19932;-66
2022/06/27 07:01:24;;;;;;;;;;;19.30;99.90;;;;;;5023981;28;19932;-65
2022/06/27 07:03:51;;;;;;;;;;;19.20;99.90;;;;;;5034062;28;19968;-66
2022/06/27 07:06:21;;;;;;;;;;;19.20;99.90;;;;;;5019550;28;20371;-65
2022/06/27 07:08:48;;;;;;;;;;;19.30;99.90;;;;;;5021670;28;20312;-65
2022/06/27 07:11:15;;;;;;;;;;;19.30;99.90;;;;;;5022561;28;20007;-66
2022/06/27 07:13:42;;;;;;;;;;;19.20;99.90;;;;;;5016774;28;19979;-66
2022/06/27 07:16:09;;;;;;;;;;;19.30;99.90;;;;;;5022282;28;19925;-65
2022/06/27 07:18:37;;;;;;;;;;;19.50;99.90;;;;;;5024552;28;19940;-65
2022/06/27 07:21:04;;;;;;;;;;;19.60;99.90;;;;;;5019238;28;20020;-65
2022/06/27 07:23:33;;;;;;;;;;;19.70;99.90;;;;;;5014906;28;19929;-65
2022/06/27 07:25:59;;;;;;;;;;;19.80;99.90;;;;;;5020596;28;19925;-66
2022/06/27 07:28:28;;;;;;;;;;;19.60;99.90;;;;;;5027540;28;19948;-66
2022/06/27 07:30:55;;;;;;;;;;;19.50;99.90;;;;;;5020714;28;19972;-65
2022/06/27 07:33:22;;;;;;;;;;;19.40;99.90;;;;;;5057670;28;19925;-65
2022/06/27 07:35:49;;;;;;;;;;;19.30;99.90;;;;;;5019848;28;19932;-65
2022/06/27 07:38:16;;;;;;;;;;;19.40;99.90;;;;;;5022536;28;19925;-66
2022/06/27 07:40:44;;;;;;;;;;;19.60;99.90;;;;;;5021391;28;20282;-65
2022/06/27 07:43:14;;;;;;;;;;;19.80;99.90;;;;;;5052240;28;19925;-66
2022/06/27 07:45:41;;;;;;;;;;;19.90;99.90;;;;;;5026325;28;19932;-65
2022/06/27 07:48:08;;;;;;;;;;;19.70;99.90;;;;;;5021613;28;20400;-65
2022/06/27 07:50:39;;;;;;;;;;;19.50;99.90;;;;;;5026769;28;19925;-66
2022/06/27 07:53:13;;;;;;;;;;;19.40;99.90;;;;;;5019567;28;19925;-65
2022/06/27 07:55:40;;;;;;;;;;;19.20;99.90;;;;;;5020465;28;19926;-65
2022/06/27 07:58:09;;;;;;;;;;;19.10;99.90;;;;;;5026054;28;19936;-65
2022/06/27 08:00:36;;;;;;;;;;;19.10;99.90;;;;;;5022385;28;19972;-65
2022/06/27 08:03:36;;;;;;;;;;;19.20;99.90;;;;;;5026405;28;19925;-65
2022/06/27 08:05:53;;;;;;;;;;;19.20;99.90;;;;;;5019486;28;20305;-66
2022/06/27 08:08:21;;;;;;;;;;;19.30;99.90;;;;;;5023575;28;19980;-65
2022/06/27 08:10:47;;;;;;;;;;;19.40;99.90;;;;;;5030122;28;20418;-65
2022/06/27 08:13:16;;;;;;;;;;;19.40;99.90;;;;;;5026601;28;20356;-65
2022/06/27 08:15:44;;;;;;;;;;;19.40;99.90;;;;;;5025876;28;19980;-65
2022/06/27 08:18:10;;;;;;;;;;;19.20;99.90;;;;;;5018493;28;19933;-65
2022/06/27 08:20:38;;;;;;;;;;;19.10;99.90;;;;;;5022858;28;20403;-65
2022/06/27 08:23:05;;;;;;;;;;;19.00;99.90;;;;;;5023295;28;20337;-65
2022/06/27 08:25:33;;;;;;;;;;;19.10;99.90;;;;;;5019364;28;19926;-65
2022/06/27 08:27:59;;;;;;;;;;;19.30;99.90;;;;;;5024084;28;20401;-65
2022/06/27 08:30:28;;;;;;;;;;;19.40;99.90;;;;;;5021695;28;20335;-65
2022/06/27 08:32:56;;;;;;;;;;;19.60;99.90;;;;;;5018721;28;19936;-64
2022/06/27 08:35:24;;;;;;;;;;;19.80;99.90;;;;;;5018090;28;19929;-66
2022/06/27 08:37:50;;;;;;;;;;;19.60;99.90;;;;;;5025487;28;20365;-66
2022/06/27 08:40:17;;;;;;;;;;;19.60;99.90;;;;;;5056298;28;20439;-66
2022/06/27 08:42:44;;;;;;;;;;;19.70;99.90;;;;;;5025150;28;20308;-65
2022/06/27 08:45:12;;;;;;;;;;;19.70;99.90;;;;;;5023162;28;19933;-65
2022/06/27 08:47:41;;;;;;;;;;;19.60;99.90;;;;;;5019057;28;20439;-65
2022/06/27 08:50:08;;;;;;;;;;;19.50;99.90;;;;;;5018723;28;20025;-66
2022/06/27 08:52:39;;;;;;;;;;;19.60;99.90;;;;;;5043869;28;19939;-65
2022/06/27 08:55:08;;;;;;;;;;;19.70;99.90;;;;;;5021347;28;19957;-66
2022/06/27 08:57:36;;;;;;;;;;;19.90;99.90;;;;;;5026275;28;20396;-65
2022/06/27 09:00:06;;;;;;;;;;;20.00;99.90;;;;;;5019898;28;19925;-65
2022/06/27 09:02:33;;;;;;;;;;;19.90;99.90;;;;;;5056885;28;19925;-65
2022/06/27 09:05:02;;;;;;;;;;;20.00;99.90;;;;;;5024977;28;19968;-65
2022/06/27 09:07:46;;;;;;;;;;;20.10;99.90;;;;;;5025751;28;20347;-66
2022/06/27 09:10:24;;;;;;;;;;;20.10;99.90;;;;;;5019023;28;19929;-65
2022/06/27 09:12:54;;;;;;;;;;;19.90;99.90;;;;;;5039762;28;20016;-66
2022/06/27 09:15:21;;;;;;;;;;;19.90;99.90;;;;;;5021952;28;19925;-65
2022/06/27 09:17:59;;;;;;;;;;;19.90;99.90;;;;;;5027332;28;19925;-65
2022/06/27 09:20:44;;;;;;;;;;;19.90;99.90;;;;;;5018565;28;19925;-66
2022/06/27 09:23:26;;;;;;;;;;;20.00;99.90;;;;;;5019592;28;19989;-64
2022/06/27 09:25:57;;;;;;;;;;;20.00;99.90;;;;;;5017349;28;19932;-71
2022/06/27 09:28:36;;;;;;;;;;;20.10;99.90;;;;;;5041503;28;20377;-65
2022/06/27 09:31:03;;;;;;;;;;;20.00;99.90;;;;;;5024292;28;20377;-65
2022/06/27 09:33:31;;;;;;;;;;;20.10;99.90;;;;;;5019567;28;19930;-65
2022/06/27 09:36:05;;;;;;;;;;;20.10;99.90;;;;;;5025945;28;19969;-65
2022/06/27 09:38:32;;;;;;;;;;;20.10;99.90;;;;;;5022736;28;19925;-65
2022/06/27 09:40:59;;;;;;;;;;;20.10;99.90;;;;;;5022267;28;20282;-65
2022/06/27 09:43:27;;;;;;;;;;;20.10;99.90;;;;;;5027774;28;20360;-66
2022/06/27 09:45:54;;;;;;;;;;;20.10;99.90;;;;;;5023422;28;20397;-66
2022/06/27 09:48:22;;;;;;;;;;;20.20;99.90;;;;;;5023314;28;19956;-66
2022/06/27 09:50:51;;;;;;;;;;;20.30;99.90;;;;;;5016054;28;19953;-65
2022/06/27 09:53:26;;;;;;;;;;;20.40;99.90;;;;;;5017202;28;20389;-65
2022/06/27 09:55:53;;;;;;;;;;;20.50;99.90;;;;;;5031640;28;19925;-65
2022/06/27 09:58:20;;;;;;;;;;;20.70;99.90;;;;;;5024786;28;19979;-63
2022/06/27 10:00:48;;;;;;;;;;;20.80;99.90;;;;;;5031374;28;19941;-66
2022/06/27 10:03:15;;;;;;;;;;;20.90;99.90;;;;;;5018282;28;19926;-66
2022/06/27 10:05:43;;;;;;;;;;;21.00;99.90;;;;;;5025855;28;19926;-66
2022/06/27 10:08:10;;;;;;;;;;;20.90;99.90;;;;;;5019242;28;20340;-65
2022/06/27 10:10:52;;;;;;;;;;;21.00;99.90;;;;;;5022372;28;20021;-66
2022/06/27 10:13:20;;;;;;;;;;;21.10;99.90;;;;;;5021006;28;19933;-67
2022/06/27 10:15:48;;;;;;;;;;;21.30;99.90;;;;;;5020306;28;19925;-66
2022/06/27 10:18:15;;;;;;;;;;;21.60;99.90;;;;;;5024496;28;19933;-66
2022/06/27 10:20:47;;;;;;;;;;;21.70;99.90;;;;;;5024274;28;19925;-65
2022/06/27 10:23:25;;;;;;;;;;;21.70;99.90;;;;;;5023357;28;19961;-66
2022/06/27 10:25:53;;;;;;;;;;;21.80;99.90;;;;;;5048273;28;19925;-66
2022/06/27 10:28:22;;;;;;;;;;;22.00;99.90;;;;;;5023081;28;19929;-66
2022/06/27 10:30:50;;;;;;;;;;;22.10;99.90;;;;;;5022699;28;19932;-66
2022/06/27 10:33:36;;;;;;;;;;;22.40;99.90;;;;;;5035494;28;19929;-68
2022/06/27 10:36:10;;;;;;;;;;;22.30;99.90;;;;;;5048117;28;19933;-66
2022/06/27 10:38:45;;;;;;;;;;;22.60;99.90;;;;;;5017557;28;19934;-66
2022/06/27 10:41:32;;;;;;;;;;;22.60;99.90;;;;;;5025523;28;19929;-65
2022/06/27 10:44:03;;;;;;;;;;;22.60;99.90;;;;;;5023012;28;19982;-66
2022/06/27 10:46:39;;;;;;;;;;;22.40;99.90;;;;;;5043760;28;19930;-67
2022/06/27 10:49:17;;;;;;;;;;;22.50;99.90;;;;;;5019077;28;19933;-73
2022/06/27 10:51:44;;;;;;;;;;;22.70;99.90;;;;;;5029168;28;20465;-67
2022/06/27 10:54:11;;;;;;;;;;;23.00;99.90;;;;;;5021677;28;19925;-67
2022/06/27 10:56:40;;;;;;;;;;;23.30;99.90;;;;;;5034294;28;20408;-67
2022/06/27 10:59:30;;;;;;;;;;;23.70;99.90;;;;;;5019343;28;19956;-67
2022/06/27 11:02:10;;;;;;;;;;;24.20;99.90;;;;;;5025156;28;20023;-67
2022/06/27 11:04:38;;;;;;;;;;;24.50;99.90;;;;;;5019528;28;20362;-65
2022/06/27 11:07:05;;;;;;;;;;;24.30;99.90;;;;;;5021231;28;20316;-67
2022/06/27 11:09:35;;;;;;;;;;;24.50;99.90;;;;;;5032071;28;19928;-67
2022/06/27 11:12:03;;;;;;;;;;;24.30;99.90;;;;;;5027610;28;20384;-67
2022/06/27 11:14:31;;;;;;;;;;;24.50;99.90;;;;;;5042725;28;20032;-67
2022/06/27 11:16:58;;;;;;;;;;;24.70;99.90;;;;;;5020793;28;20463;-67
2022/06/27 11:22:18;;;;;;;;;;;24.80;99.90;;;;;;5027028;28;19932;-67
2022/06/27 11:24:46;;;;;;;;;;;24.90;99.90;;;;;;5028317;28;19928;-65
2022/06/27 11:27:12;;;;;;;;;;;25.00;99.90;;;;;;5028489;28;19929;-65
2022/06/27 11:32:27;;;;;;;;;;;24.30;99.90;;;;;;5028598;28;19937;-66
2022/06/27 11:34:54;;;;;;;;;;;24.20;99.90;;;;;;5032871;28;19979;-66
2022/06/27 11:37:23;;;;;;;;;;;24.40;99.90;;;;;;5025989;28;19929;-66
2022/06/27 11:40:00;;;;;;;;;;;24.30;99.90;;;;;;5027340;28;19929;-72
2022/06/27 11:42:28;;;;;;;;;;;23.90;99.90;;;;;;5029016;28;19932;-66
2022/06/27 11:45:07;;;;;;;;;;;23.60;99.90;;;;;;5040618;28;19929;-66
2022/06/27 11:47:35;;;;;;;;;;;23.40;99.90;;;;;;5026605;28;19972;-66
2022/06/27 11:50:02;;;;;;;;;;;23.50;99.90;;;;;;5024488;28;19925;-65
2022/06/27 11:52:35;;;;;;;;;;;22.90;99.90;;;;;;5024959;28;19925;-65
2022/06/27 11:55:06;;;;;;;;;;;22.70;99.90;;;;;;5024419;28;19925;-65
2022/06/27 11:57:33;;;;;;;;;;;22.70;99.90;;;;;;5023491;28;19925;-66
2022/06/27 12:00:01;;;;;;;;;;;22.60;99.90;;;;;;5019315;28;19988;-66
2022/06/27 12:02:37;;;;;;;;;;;22.80;99.90;;;;;;5025605;28;19978;-66
2022/06/27 12:05:05;;;;;;;;;;;22.80;99.90;;;;;;5024545;28;19964;-65
2022/06/27 12:07:31;;;;;;;;;;;22.90;99.90;;;;;;5027371;28;19933;-66
2022/06/27 12:09:58;;;;;;;;;;;23.30;99.90;;;;;;5025535;28;19932;-66
2022/06/27 12:12:26;;;;;;;;;;;23.40;99.90;;;;;;5030566;28;19929;-66
2022/06/27 12:14:53;;;;;;;;;;;23.90;99.90;;;;;;5024926;28;19975;-66
2022/06/27 12:17:20;;;;;;;;;;;24.10;99.90;;;;;;5030128;28;19925;-66
2022/06/27 12:19:59;;;;;;;;;;;24.70;99.90;;;;;;5042633;28;19925;-65
2022/06/27 12:22:25;;;;;;;;;;;24.50;99.90;;;;;;5022254;28;20413;-66
2022/06/27 12:24:52;;;;;;;;;;;24.90;99.90;;;;;;5027938;28;19929;-66
2022/06/27 12:27:19;;;;;;;;;;;24.70;99.90;;;;;;5028963;28;20443;-65
2022/06/27 12:29:46;;;;;;;;;;;24.90;99.90;;;;;;5042731;28;19956;-66
2022/06/27 12:32:13;;;;;;;;;;;25.00;99.90;;;;;;5031368;28;19976;-66
2022/06/27 12:34:40;;;;;;;;;;;24.80;99.90;;;;;;5019559;28;19932;-65
2022/06/27 12:37:09;;;;;;;;;;;25.10;99.90;;;;;;5029404;28;20372;-66
2022/06/27 12:39:35;;;;;;;;;;;25.80;99.90;;;;;;5029928;28;19925;-66
2022/06/27 12:42:03;;;;;;;;;;;25.90;99.90;;;;;;5020808;28;19937;-67
2022/06/27 12:44:30;;;;;;;;;;;26.00;99.90;;;;;;5023662;28;19925;-70
2022/06/27 12:46:57;;;;;;;;;;;26.00;99.90;;;;;;5039896;28;19925;-71
2022/06/27 12:49:24;;;;;;;;;;;26.30;99.90;;;;;;5018574;28;20408;-66
2022/06/27 12:51:50;;;;;;;;;;;27.00;99.90;;;;;;5023141;28;19925;-66
2022/06/27 12:54:19;;;;;;;;;;;27.60;99.90;;;;;;5028485;28;19925;-66
2022/06/27 12:56:46;;;;;;;;;;;27.90;99.90;;;;;;5045012;28;19929;-66
2022/06/27 12:59:13;;;;;;;;;;;26.80;99.90;;;;;;5024309;28;19929;-66
2022/06/27 13:01:40;;;;;;;;;;;26.20;99.90;;;;;;5023942;28;19925;-66
2022/06/27 13:04:07;;;;;;;;;;;25.70;99.90;;;;;;5018880;28;19956;-67
2022/06/27 13:06:33;;;;;;;;;;;25.60;99.90;;;;;;5016345;28;20355;-67
2022/06/27 13:09:00;;;;;;;;;;;25.50;99.90;;;;;;5015059;28;19925;-64
2022/06/27 13:11:28;;;;;;;;;;;25.90;99.90;;;;;;5017460;28;19925;-67
2022/06/27 13:13:55;;;;;;;;;;;27.00;99.90;;;;;;5023588;28;19928;-65
2022/06/27 13:16:22;;;;;;;;;;;27.30;99.90;;;;;;5026637;28;19932;-65
2022/06/27 13:18:48;;;;;;;;;;;27.30;99.90;;;;;;5023730;28;19933;-65
2022/06/27 13:21:15;;;;;;;;;;;26.40;99.90;;;;;;5027730;28;19979;-66
2022/06/27 13:23:42;;;;;;;;;;;27.50;99.90;;;;;;5022309;28;19925;-66
2022/06/27 13:26:09;;;;;;;;;;;28.70;99.90;;;;;;5023545;28;19925;-66
2022/06/27 13:28:37;;;;;;;;;;;29.40;99.90;;;;;;5028120;28;19928;-66
2022/06/27 13:31:05;;;;;;;;;;;28.60;99.90;;;;;;5039112;28;20392;-66
2022/06/27 13:33:31;;;;;;;;;;;27.40;99.90;;;;;;5019481;28;19925;-65
2022/06/27 13:35:58;;;;;;;;;;;25.70;99.90;;;;;;5019465;28;19929;-65
2022/06/27 13:38:25;;;;;;;;;;;24.90;99.90;;;;;;5022438;28;19925;-66
2022/06/27 13:40:52;;;;;;;;;;;24.60;99.90;;;;;;5041961;28;19925;-65
2022/06/27 13:43:19;;;;;;;;;;;24.80;99.90;;;;;;5026285;28;19929;-66
2022/06/27 13:45:47;;;;;;;;;;;24.00;99.90;;;;;;5021317;28;19933;-65
2022/06/27 13:48:13;;;;;;;;;;;23.60;99.90;;;;;;5039215;28;19925;-65
2022/06/27 13:50:40;;;;;;;;;;;23.40;99.90;;;;;;5025969;28;20393;-67
2022/06/27 13:53:07;;;;;;;;;;;22.60;99.90;;;;;;5022392;28;19979;-67
2022/06/27 13:55:35;;;;;;;;;;;20.80;99.90;;;;;;5021188;28;19952;-67
2022/06/27 13:58:02;;;;;;;;;;;19.50;99.90;;;;;;5024466;28;20388;-67
2022/06/27 14:00:29;;;;;;;;;;;18.70;99.90;;;;;;5037403;28;19929;-67
2022/06/27 14:02:57;;;;;;;;;;;18.30;99.90;;;;;;5022987;28;19929;-69
2022/06/27 14:05:24;;;;;;;;;;;17.70;99.90;;;;;;5026032;28;19926;-67
2022/06/27 14:07:51;;;;;;;;;;;17.20;99.90;;;;;;5021059;28;19945;-67
2022/06/27 14:10:19;;;;;;;;;;;16.90;99.90;;;;;;5028847;28;19961;-67
2022/06/27 14:12:48;;;;;;;;;;;16.60;99.90;;;;;;5041287;28;19925;-66
2022/06/27 14:15:16;;;;;;;;;;;16.30;99.90;;;;;;5027427;28;19925;-67
2022/06/27 14:17:43;;;;;;;;;;;16.00;99.90;;;;;;5025014;28;20399;-67
2022/06/27 14:20:14;;;;;;;;;;;15.90;99.90;;;;;;5023520;28;20359;-67
2022/06/27 14:22:41;;;;;;;;;;;15.90;99.90;;;;;;5036022;28;19929;-67
2022/06/27 14:25:08;;;;;;;;;;;16.00;99.90;;;;;;5022491;28;19925;-67
2022/06/27 14:27:35;;;;;;;;;;;16.00;99.90;;;;;;5045075;28;19929;-63
2022/06/27 14:30:02;;;;;;;;;;;16.00;99.90;;;;;;5028247;28;19944;-66
2022/06/27 14:32:29;;;;;;;;;;;16.30;99.90;;;;;;5025502;28;19930;-67
2022/06/27 14:34:56;;;;;;;;;;;16.30;99.90;;;;;;5023840;28;19926;-67